Time;durP1;ratioP1;P1;durP2;ratioP2;P2;SDS_P1;SDS_P2;PMS_P1;PMS_P2;Temp;Humidity;BMP_temperature;BMP_pressure;BME280_temperature;BME280_humidity;BME280_pressure;Samples;Min_cycle;Max_cycle;Signal;HPM_P1;HPM_P2
2024/02/05 00:01:17;;;;;;;61.42;32.60;;;;;;;;;;4885850;29;20024;-90
2024/02/05 00:03:44;;;;;;;55.63;30.13;;;;;;;;;;4890809;29;20435;-89
2024/02/05 00:06:11;;;;;;;60.47;32.78;;;;;;;;;;4867180;29;20032;-91
2024/02/05 00:08:37;;;;;;;68.53;38.95;;;;;;;;;;4867078;29;20029;-91
2024/02/05 00:11:05;;;;;;;71.93;41.30;;;;;;;;;;4883764;29;20037;-91
2024/02/05 00:13:31;;;;;;;79.35;40.42;;;;;;;;;;4866990;29;20068;-91
2024/02/05 00:15:57;;;;;;;82.07;42.58;;;;;;;;;;4867154;29;20072;-90
2024/02/05 00:18:24;;;;;;;86.97;45.20;;;;;;;;;;4867099;29;20025;-91
2024/02/05 00:20:50;;;;;;;84.00;43.63;;;;;;;;;;4866948;29;20071;-90
2024/02/05 00:23:17;;;;;;;70.90;38.22;;;;;;;;;;4890284;29;20460;-91
2024/02/05 00:25:43;;;;;;;53.10;29.75;;;;;;;;;;4885623;29;20340;-92
2024/02/05 00:28:09;;;;;;;55.50;30.08;;;;;;;;;;4902124;29;20025;-92
2024/02/05 00:30:35;;;;;;;52.75;29.63;;;;;;;;;;4902229;29;20024;-92
2024/02/05 00:36:05;;;;;;;51.85;29.60;;;;;;;;;;4899768;29;20032;-89
2024/02/05 00:38:31;;;;;;;49.88;29.02;;;;;;;;;;4877166;29;20067;-90
2024/02/05 00:40:58;;;;;;;48.97;29.55;;;;;;;;;;4893606;29;20036;-89
2024/02/05 00:43:24;;;;;;;55.28;30.95;;;;;;;;;;4907328;29;20048;-90
2024/02/05 00:45:50;;;;;;;58.90;33.95;;;;;;;;;;4888792;29;20024;-89
2024/02/05 00:48:35;;;;;;;57.80;33.40;;;;;;;;;;4888965;29;20029;-89
2024/02/05 00:51:01;;;;;;;56.42;34.65;;;;;;;;;;4888409;29;20043;-90
2024/02/05 00:53:27;;;;;;;53.33;31.50;;;;;;;;;;4889443;29;20037;-91
2024/02/05 00:55:53;;;;;;;56.42;33.45;;;;;;;;;;4905427;29;20063;-91
2024/02/05 00:58:19;;;;;;;54.15;30.42;;;;;;;;;;4905063;29;20077;-90
2024/02/05 01:00:45;;;;;;;46.88;28.48;;;;;;;;;;4888238;29;20074;-90
2024/02/05 01:03:11;;;;;;;48.58;29.30;;;;;;;;;;4875603;29;20070;-90
2024/02/05 01:05:37;;;;;;;54.05;29.75;;;;;;;;;;4869747;29;20424;-90
2024/02/05 01:08:04;;;;;;;50.67;31.52;;;;;;;;;;4869917;29;20039;-89
2024/02/05 01:10:30;;;;;;;52.35;30.23;;;;;;;;;;4869873;29;20056;-91
2024/02/05 01:12:56;;;;;;;47.22;28.00;;;;;;;;;;4869697;29;20124;-91
2024/02/05 01:15:22;;;;;;;41.72;25.77;;;;;;;;;;4869748;29;20074;-90
2024/02/05 01:17:48;;;;;;;46.05;25.58;;;;;;;;;;4886296;29;20029;-91
2024/02/05 01:20:14;;;;;;;55.05;29.77;;;;;;;;;;4869751;29;20121;-90
2024/02/05 01:22:40;;;;;;;44.75;26.25;;;;;;;;;;4876875;29;20056;-91
2024/02/05 01:25:08;;;;;;;53.30;28.83;;;;;;;;;;4888245;29;20039;-91
2024/02/05 01:27:34;;;;;;;77.82;41.72;;;;;;;;;;4888769;29;20111;-89
2024/02/05 01:30:00;;;;;;;73.07;37.90;;;;;;;;;;4888084;29;20033;-91
2024/02/05 01:38:33;;;;;;;58.08;33.05;;;;;;;;;;4903678;29;20032;-91
2024/02/05 01:40:59;;;;;;;49.08;29.52;;;;;;;;;;4887924;29;20040;-91
2024/02/05 01:43:25;;;;;;;48.17;30.02;;;;;;;;;;4887490;29;20053;-91
2024/02/05 01:45:52;;;;;;;45.53;27.08;;;;;;;;;;4904643;29;20031;-91
2024/02/05 01:48:22;;;;;;;42.83;26.60;;;;;;;;;;4886376;29;20486;-91
2024/02/05 01:50:48;;;;;;;45.15;26.60;;;;;;;;;;4885768;29;20020;-91
2024/02/05 01:53:16;;;;;;;45.17;26.58;;;;;;;;;;4868903;29;20136;-91
2024/02/05 01:55:43;;;;;;;47.65;28.45;;;;;;;;;;4869151;29;20033;-91
2024/02/05 01:58:10;;;;;;;46.17;28.70;;;;;;;;;;4868954;29;20033;-91
2024/02/05 02:00:37;;;;;;;49.35;27.40;;;;;;;;;;4885546;29;20025;-91
2024/02/05 02:03:03;;;;;;;44.10;27.10;;;;;;;;;;4868989;29;20124;-91
2024/02/05 02:05:29;;;;;;;39.80;24.33;;;;;;;;;;4885504;29;20072;-91
2024/02/05 02:07:55;;;;;;;42.60;25.48;;;;;;;;;;4868832;29;20069;-91
2024/02/05 02:10:21;;;;;;;53.65;29.98;;;;;;;;;;4873154;29;20025;-90
2024/02/05 02:12:47;;;;;;;49.10;27.98;;;;;;;;;;4902872;29;20028;-91
2024/02/05 02:15:14;;;;;;;50.38;28.85;;;;;;;;;;4887337;29;20028;-90
2024/02/05 02:20:45;;;;;;;58.53;31.63;;;;;;;;;;4903836;29;20036;-90
2024/02/05 02:23:24;;;;;;;55.83;28.77;;;;;;;;;;4887187;29;20091;-92
2024/02/05 02:25:51;;;;;;;51.72;30.00;;;;;;;;;;4903765;29;20028;-91
2024/02/05 02:28:17;;;;;;;53.70;29.65;;;;;;;;;;4886940;29;20064;-92
2024/02/05 02:30:43;;;;;;;55.72;30.00;;;;;;;;;;4896996;29;20017;-90
2024/02/05 02:33:24;;;;;;;55.83;29.92;;;;;;;;;;4868286;29;20139;-91
2024/02/05 02:36:00;;;;;;;47.42;25.88;;;;;;;;;;4884784;29;20037;-90
2024/02/05 02:38:33;;;;;;;43.78;25.80;;;;;;;;;;4868395;29;20035;-91
2024/02/05 02:41:05;;;;;;;45.35;25.92;;;;;;;;;;4884809;29;20040;-91
2024/02/05 02:43:32;;;;;;;39.42;25.52;;;;;;;;;;4884313;29;20076;-91
2024/02/05 02:45:59;;;;;;;48.35;25.38;;;;;;;;;;4868601;29;20423;-90
2024/02/05 02:48:26;;;;;;;47.67;26.55;;;;;;;;;;4881715;29;20131;-93
2024/02/05 02:50:52;;;;;;;41.50;24.13;;;;;;;;;;4886394;29;20494;-92
2024/02/05 02:53:18;;;;;;;59.15;27.60;;;;;;;;;;4886658;29;20036;-93
2024/02/05 02:55:44;;;;;;;47.40;25.23;;;;;;;;;;4886682;29;20323;-93
2024/02/05 02:58:10;;;;;;;54.47;25.33;;;;;;;;;;4903246;29;20404;-92
2024/02/05 03:00:36;;;;;;;46.58;24.33;;;;;;;;;;4885434;29;20036;-92
2024/02/05 03:03:03;;;;;;;41.65;23.27;;;;;;;;;;4886366;29;20073;-92
2024/02/05 03:05:29;;;;;;;39.75;23.25;;;;;;;;;;4886476;29;20024;-92
2024/02/05 03:07:55;;;;;;;39.50;24.05;;;;;;;;;;4902610;29;20028;-93
2024/02/05 03:10:21;;;;;;;36.38;22.70;;;;;;;;;;4883337;29;20060;-92
2024/02/05 03:12:47;;;;;;;41.60;23.90;;;;;;;;;;4867800;29;20064;-91
2024/02/05 03:15:13;;;;;;;46.15;24.33;;;;;;;;;;4867917;29;20033;-93
2024/02/05 03:20:42;;;;;;;40.92;25.48;;;;;;;;;;4889433;29;20048;-92
2024/02/05 03:23:10;;;;;;;39.90;25.23;;;;;;;;;;4886289;29;20043;-91
2024/02/05 03:25:37;;;;;;;37.75;23.00;;;;;;;;;;4902632;29;20021;-91
2024/02/05 03:28:04;;;;;;;40.42;24.35;;;;;;;;;;4902407;29;20025;-92
2024/02/05 03:30:30;;;;;;;39.22;25.02;;;;;;;;;;4902454;29;20028;-92
2024/02/05 03:33:21;;;;;;;41.15;25.65;;;;;;;;;;4903010;29;20087;-91
2024/02/05 03:35:47;;;;;;;38.60;23.40;;;;;;;;;;4881900;29;20029;-92
2024/02/05 03:38:13;;;;;;;39.47;24.10;;;;;;;;;;4883757;29;20411;-93
2024/02/05 03:40:39;;;;;;;43.83;26.45;;;;;;;;;;4867356;29;20041;-92
2024/02/05 03:43:05;;;;;;;43.45;25.05;;;;;;;;;;4867114;29;20086;-92
2024/02/05 03:45:31;;;;;;;56.00;30.15;;;;;;;;;;4867391;29;20029;-90
2024/02/05 03:51:01;;;;;;;41.35;25.33;;;;;;;;;;4884122;29;20036;-91
2024/02/05 03:53:27;;;;;;;38.97;24.63;;;;;;;;;;4867160;29;20428;-93
2024/02/05 03:55:53;;;;;;;39.40;24.25;;;;;;;;;;4867263;29;20025;-93
2024/02/05 03:58:20;;;;;;;41.45;25.83;;;;;;;;;;4867298;29;20120;-92
2024/02/05 04:00:46;;;;;;;46.75;31.10;;;;;;;;;;4872311;29;20040;-93
2024/02/05 04:06:15;;;;;;;40.92;25.10;;;;;;;;;;4901258;29;20316;-90
2024/02/05 04:08:41;;;;;;;46.08;29.35;;;;;;;;;;4885173;29;20044;-91
2024/02/05 04:11:07;;;;;;;48.40;29.08;;;;;;;;;;4886018;29;20127;-91
2024/02/05 04:13:33;;;;;;;49.17;30.45;;;;;;;;;;4905639;29;20045;-91
2024/02/05 04:15:59;;;;;;;46.28;29.88;;;;;;;;;;4888862;29;20420;-89
2024/02/05 04:21:48;;;;;;;56.75;32.05;;;;;;;;;;4903959;29;20039;-91
2024/02/05 04:24:14;;;;;;;65.72;39.08;;;;;;;;;;4889071;29;20119;-91
2024/02/05 04:26:40;;;;;;;72.68;41.90;;;;;;;;;;4889078;29;20052;-90
2024/02/05 04:29:14;;;;;;;54.33;30.27;;;;;;;;;;4888963;29;20028;-91
2024/02/05 04:31:40;;;;;;;49.60;28.10;;;;;;;;;;4905169;29;20024;-90
2024/02/05 04:37:10;;;;;;;48.35;29.65;;;;;;;;;;4901927;29;20036;-91
2024/02/05 04:39:36;;;;;;;47.40;28.80;;;;;;;;;;4888134;29;20040;-90
2024/02/05 04:42:02;;;;;;;43.28;28.35;;;;;;;;;;4902561;29;20114;-90
2024/02/05 04:44:28;;;;;;;47.50;30.23;;;;;;;;;;4885841;29;20089;-89
2024/02/05 04:46:54;;;;;;;42.55;28.48;;;;;;;;;;4904734;29;20016;-90
2024/02/05 04:49:20;;;;;;;43.75;27.00;;;;;;;;;;4888502;29;20056;-90
2024/02/05 04:51:50;;;;;;;55.40;30.30;;;;;;;;;;4876000;29;20109;-91
2024/02/05 04:54:16;;;;;;;126.80;44.35;;;;;;;;;;4882730;29;20092;-90
2024/02/05 04:56:42;;;;;;;139.63;48.47;;;;;;;;;;4904908;29;20029;-90
2024/02/05 04:59:08;;;;;;;88.68;36.83;;;;;;;;;;4888197;29;20024;-90
2024/02/05 05:01:34;;;;;;;60.85;29.42;;;;;;;;;;4896098;29;20021;-90
2024/02/05 05:07:49;;;;;;;38.10;22.83;;;;;;;;;;4904614;29;20136;-90
2024/02/05 05:10:15;;;;;;;39.78;22.98;;;;;;;;;;4904118;29;20116;-90
2024/02/05 05:12:41;;;;;;;38.65;23.58;;;;;;;;;;4904481;29;20443;-90
2024/02/05 05:15:07;;;;;;;36.63;23.40;;;;;;;;;;4888079;29;20036;-90
2024/02/05 05:17:33;;;;;;;44.53;27.70;;;;;;;;;;4887978;29;20041;-90
2024/02/05 05:20:00;;;;;;;47.05;30.92;;;;;;;;;;4904383;29;20052;-91
2024/02/05 05:22:26;;;;;;;48.30;31.23;;;;;;;;;;4903415;29;20044;-92
2024/02/05 05:24:52;;;;;;;43.10;27.63;;;;;;;;;;4904072;29;20025;-91
2024/02/05 05:27:18;;;;;;;41.28;25.27;;;;;;;;;;4883188;29;20050;-90
2024/02/05 05:29:44;;;;;;;42.22;25.15;;;;;;;;;;4904245;29;20059;-90
2024/02/05 05:32:11;;;;;;;40.80;25.10;;;;;;;;;;4904094;29;20047;-91
2024/02/05 05:35:09;;;;;;;39.13;26.13;;;;;;;;;;4879214;29;20427;-89
2024/02/05 05:37:35;;;;;;;48.55;28.23;;;;;;;;;;4896528;29;20050;-91
2024/02/05 05:40:02;;;;;;;56.95;28.67;;;;;;;;;;4887674;29;20040;-91
2024/02/05 05:42:31;;;;;;;38.00;24.38;;;;;;;;;;4903707;29;20392;-91
2024/02/05 05:44:57;;;;;;;47.33;26.65;;;;;;;;;;4903384;29;20333;-91
2024/02/05 05:47:23;;;;;;;40.20;24.15;;;;;;;;;;4886818;29;20032;-90
2024/02/05 05:50:27;;;;;;;34.33;22.02;;;;;;;;;;4887400;29;20028;-90
2024/02/05 05:52:54;;;;;;;35.88;21.48;;;;;;;;;;4887562;29;20028;-91
2024/02/05 05:55:20;;;;;;;34.72;20.33;;;;;;;;;;4886528;29;20335;-92
2024/02/05 05:57:46;;;;;;;32.80;21.80;;;;;;;;;;4903858;29;20424;-91
2024/02/05 06:00:13;;;;;;;35.70;21.98;;;;;;;;;;4887420;29;20415;-91
2024/02/05 06:02:40;;;;;;;32.75;21.92;;;;;;;;;;4903648;29;20424;-91
2024/02/05 06:05:38;;;;;;;42.67;25.52;;;;;;;;;;4890888;29;20055;-91
2024/02/05 06:08:04;;;;;;;52.67;30.05;;;;;;;;;;4883016;29;20416;-90
2024/02/05 06:10:30;;;;;;;46.80;27.88;;;;;;;;;;4886897;29;20407;-92
2024/02/05 06:12:58;;;;;;;42.85;26.40;;;;;;;;;;4891099;29;20036;-91
2024/02/05 06:15:24;;;;;;;42.65;25.13;;;;;;;;;;4887405;29;20441;-91
2024/02/05 06:18:08;;;;;;;41.25;23.38;;;;;;;;;;4903755;29;20025;-92
2024/02/05 06:20:34;;;;;;;36.60;24.27;;;;;;;;;;4895829;29;20331;-90
2024/02/05 06:23:00;;;;;;;41.40;23.98;;;;;;;;;;4886701;29;20040;-91
2024/02/05 06:25:26;;;;;;;42.65;25.50;;;;;;;;;;4902745;29;20028;-90
2024/02/05 06:27:52;;;;;;;43.03;24.70;;;;;;;;;;4886852;29;20438;-92
2024/02/05 06:30:18;;;;;;;43.08;25.67;;;;;;;;;;4887036;29;20035;-90
2024/02/05 06:32:47;;;;;;;75.20;39.10;;;;;;;;;;4888013;29;20123;-90
2024/02/05 06:35:13;;;;;;;181.75;70.93;;;;;;;;;;4902817;29;20029;-90
2024/02/05 06:37:40;;;;;;;200.00;78.35;;;;;;;;;;4902928;29;20032;-91
2024/02/05 06:40:08;;;;;;;200.50;74.25;;;;;;;;;;4902933;29;20032;-92
2024/02/05 06:42:34;;;;;;;113.28;48.65;;;;;;;;;;4884659;29;20057;-91
2024/02/05 06:45:00;;;;;;;121.43;49.67;;;;;;;;;;4886724;29;20072;-92
2024/02/05 06:47:26;;;;;;;115.43;47.55;;;;;;;;;;4892598;29;20424;-92
2024/02/05 06:49:53;;;;;;;101.15;47.70;;;;;;;;;;4902334;29;20028;-91
2024/02/05 06:52:19;;;;;;;90.30;46.47;;;;;;;;;;4883314;29;20296;-90
2024/02/05 06:54:49;;;;;;;100.28;45.65;;;;;;;;;;4902152;29;20029;-91
2024/02/05 06:57:15;;;;;;;90.60;41.55;;;;;;;;;;4890850;29;20032;-91
2024/02/05 06:59:47;;;;;;;74.80;37.17;;;;;;;;;;4886158;29;20036;-90
2024/02/05 07:02:13;;;;;;;58.63;34.30;;;;;;;;;;4902121;29;20029;-91
2024/02/05 07:04:39;;;;;;;70.43;37.20;;;;;;;;;;4903182;29;20115;-89
2024/02/05 07:07:06;;;;;;;145.38;59.70;;;;;;;;;;4902456;29;20408;-90
2024/02/05 07:09:32;;;;;;;278.63;102.28;;;;;;;;;;4903013;29;20024;-90
2024/02/05 07:11:58;;;;;;;200.48;82.20;;;;;;;;;;4885618;29;20335;-90
2024/02/05 07:14:24;;;;;;;171.77;71.15;;;;;;;;;;4886214;29;20024;-90
2024/02/05 07:16:51;;;;;;;80.65;44.65;;;;;;;;;;4902357;29;20025;-90
2024/02/05 07:19:17;;;;;;;91.07;49.47;;;;;;;;;;4886687;29;20028;-90
2024/02/05 07:21:43;;;;;;;76.15;42.45;;;;;;;;;;4902727;29;20052;-90
2024/02/05 07:24:09;;;;;;;71.68;42.10;;;;;;;;;;4902301;29;20056;-90
2024/02/05 07:26:36;;;;;;;97.72;52.85;;;;;;;;;;4902353;29;20120;-89
2024/02/05 07:29:02;;;;;;;151.48;69.30;;;;;;;;;;4901835;29;20033;-89
2024/02/05 07:31:28;;;;;;;133.98;60.38;;;;;;;;;;4892727;29;20032;-89
2024/02/05 07:37:11;;;;;;;61.10;36.17;;;;;;;;;;4901080;29;20071;-89
2024/02/05 07:39:37;;;;;;;50.70;29.85;;;;;;;;;;4884445;29;20037;-91
2024/02/05 07:42:04;;;;;;;48.58;28.73;;;;;;;;;;4888694;29;20060;-92
2024/02/05 07:44:31;;;;;;;50.25;28.63;;;;;;;;;;4901634;29;20544;-91
2024/02/05 07:46:57;;;;;;;70.00;35.70;;;;;;;;;;4901979;29;20464;-90
2024/02/05 07:49:25;;;;;;;52.38;32.40;;;;;;;;;;4902008;29;20427;-92
2024/02/05 07:51:52;;;;;;;56.42;33.55;;;;;;;;;;4885528;29;20076;-90
2024/02/05 07:54:19;;;;;;;51.45;31.30;;;;;;;;;;4902275;29;20029;-91
2024/02/05 07:56:45;;;;;;;43.20;26.10;;;;;;;;;;4902097;29;20033;-90
2024/02/05 07:59:12;;;;;;;43.45;26.05;;;;;;;;;;4885312;29;20404;-90
2024/02/05 08:01:38;;;;;;;48.15;27.92;;;;;;;;;;4885667;29;20324;-89
2024/02/05 08:04:05;;;;;;;43.38;24.77;;;;;;;;;;4885401;29;20037;-89
2024/02/05 08:06:32;;;;;;;49.22;28.20;;;;;;;;;;4901388;29;20048;-90
2024/02/05 08:08:58;;;;;;;47.25;28.67;;;;;;;;;;4901531;29;20055;-86
2024/02/05 08:11:24;;;;;;;46.13;29.98;;;;;;;;;;4881260;29;20040;-89
2024/02/05 08:13:51;;;;;;;56.17;32.70;;;;;;;;;;4889581;29;20044;-89
2024/02/05 08:16:17;;;;;;;40.45;25.00;;;;;;;;;;4900213;29;20051;-87
2024/02/05 08:19:01;;;;;;;44.25;26.20;;;;;;;;;;4908954;29;20052;-89
2024/02/05 08:21:27;;;;;;;42.13;26.98;;;;;;;;;;4884477;29;20124;-88
2024/02/05 08:23:53;;;;;;;65.63;35.55;;;;;;;;;;4878607;29;20436;-92
2024/02/05 08:26:19;;;;;;;63.40;32.95;;;;;;;;;;4902174;29;20343;-91
2024/02/05 08:28:47;;;;;;;44.67;28.25;;;;;;;;;;4901935;29;20488;-91
2024/02/05 08:31:13;;;;;;;43.47;27.15;;;;;;;;;;4901745;29;20415;-92
2024/02/05 08:33:39;;;;;;;51.10;27.13;;;;;;;;;;4885213;29;20051;-92
2024/02/05 08:36:05;;;;;;;58.42;33.15;;;;;;;;;;4902059;29;20033;-92
2024/02/05 08:38:32;;;;;;;49.67;28.15;;;;;;;;;;4901672;29;20108;-93
2024/02/05 08:40:58;;;;;;;47.88;28.42;;;;;;;;;;4880778;29;20136;-92
2024/02/05 08:43:24;;;;;;;47.88;28.45;;;;;;;;;;4888481;29;20060;-92
2024/02/05 08:45:50;;;;;;;41.90;28.70;;;;;;;;;;4897220;29;20036;-92
2024/02/05 08:51:38;;;;;;;37.53;24.63;;;;;;;;;;4892104;29;20035;-92
2024/02/05 08:54:10;;;;;;;46.28;26.40;;;;;;;;;;4884481;29;20040;-93
2024/02/05 08:56:36;;;;;;;44.33;26.92;;;;;;;;;;4901440;29;20412;-91
2024/02/05 08:59:02;;;;;;;48.13;28.25;;;;;;;;;;4894896;29;20032;-90
2024/02/05 09:01:31;;;;;;;45.20;28.15;;;;;;;;;;4882359;29;20028;-95
2024/02/05 09:04:16;;;;;;;40.65;24.33;;;;;;;;;;4904284;29;20060;-94
2024/02/05 09:06:42;;;;;;;54.83;28.42;;;;;;;;;;4896767;29;20060;-94
2024/02/05 09:09:09;;;;;;;49.30;27.83;;;;;;;;;;4906160;29;20065;-87
2024/02/05 09:11:36;;;;;;;46.95;26.67;;;;;;;;;;4884085;29;20415;-90
2024/02/05 09:14:02;;;;;;;36.65;23.50;;;;;;;;;;4887267;29;20033;-89
2024/02/05 09:16:28;;;;;;;38.53;24.45;;;;;;;;;;4884789;29;20047;-88
2024/02/05 09:19:13;;;;;;;45.40;24.85;;;;;;;;;;4898700;29;20032;-88
2024/02/05 09:21:39;;;;;;;49.70;27.65;;;;;;;;;;4895660;29;20415;-88
2024/02/05 09:24:05;;;;;;;51.92;29.23;;;;;;;;;;4874042;29;20040;-88
2024/02/05 09:26:31;;;;;;;46.97;26.52;;;;;;;;;;4887173;29;20084;-89
2024/02/05 09:28:57;;;;;;;43.92;26.95;;;;;;;;;;4904545;29;20112;-89
2024/02/05 09:31:23;;;;;;;43.15;25.23;;;;;;;;;;4904696;29;20024;-89
2024/02/05 09:33:49;;;;;;;38.58;24.83;;;;;;;;;;4904103;29;20037;-89
2024/02/05 09:36:15;;;;;;;40.40;23.55;;;;;;;;;;4884079;29;20111;-89
2024/02/05 09:38:41;;;;;;;49.53;26.85;;;;;;;;;;4870941;29;20119;-90
2024/02/05 09:41:09;;;;;;;42.63;26.50;;;;;;;;;;4895717;29;20415;-89
2024/02/05 09:43:35;;;;;;;42.53;27.42;;;;;;;;;;4871581;29;20089;-88
2024/02/05 09:46:05;;;;;;;41.20;25.17;;;;;;;;;;4866781;29;20033;-89
2024/02/05 09:48:35;;;;;;;48.05;27.55;;;;;;;;;;4859397;29;20028;-89
2024/02/05 09:51:04;;;;;;;45.83;25.73;;;;;;;;;;4866539;29;20038;-92
2024/02/05 09:53:32;;;;;;;43.15;24.92;;;;;;;;;;4866449;29;20018;-91
2024/02/05 09:55:58;;;;;;;44.47;25.98;;;;;;;;;;4866528;29;20086;-92
2024/02/05 09:58:25;;;;;;;42.92;24.63;;;;;;;;;;4866470;29;20026;-92
2024/02/05 10:00:51;;;;;;;35.75;22.98;;;;;;;;;;4866317;29;20029;-91
2024/02/05 10:03:18;;;;;;;37.13;23.40;;;;;;;;;;4865689;29;20028;-91
2024/02/05 10:05:47;;;;;;;40.95;24.38;;;;;;;;;;4865236;29;20034;-86
2024/02/05 10:08:14;;;;;;;32.75;20.95;;;;;;;;;;4864931;29;20033;-86
2024/02/05 10:10:43;;;;;;;34.28;22.10;;;;;;;;;;4864869;29;20045;-85
2024/02/05 10:13:10;;;;;;;33.60;20.95;;;;;;;;;;4860011;29;20104;-85
2024/02/05 10:15:36;;;;;;;36.42;21.50;;;;;;;;;;4876989;29;20132;-84
2024/02/05 10:18:02;;;;;;;37.50;22.35;;;;;;;;;;4867363;29;20069;-85
2024/02/05 10:20:34;;;;;;;40.15;24.35;;;;;;;;;;4863315;29;20064;-89
2024/02/05 10:23:00;;;;;;;56.05;28.92;;;;;;;;;;4851064;29;20038;-88
2024/02/05 10:25:27;;;;;;;79.53;39.80;;;;;;;;;;4847580;29;20030;-89
2024/02/05 10:28:03;;;;;;;44.42;25.63;;;;;;;;;;4864944;29;20067;-88
2024/02/05 10:30:31;;;;;;;39.78;22.67;;;;;;;;;;4864588;29;20039;-87
2024/02/05 10:32:59;;;;;;;35.13;21.70;;;;;;;;;;4859202;29;20033;-92
2024/02/05 10:35:32;;;;;;;33.70;20.73;;;;;;;;;;4865940;29;20065;-90
2024/02/05 10:38:08;;;;;;;31.73;20.65;;;;;;;;;;4860127;29;20124;-89
2024/02/05 10:40:38;;;;;;;38.05;22.83;;;;;;;;;;4865244;29;20320;-87
2024/02/05 10:43:04;;;;;;;45.40;25.95;;;;;;;;;;4870553;29;20060;-88
2024/02/05 10:45:34;;;;;;;44.78;25.15;;;;;;;;;;4885320;29;20025;-88
2024/02/05 10:48:01;;;;;;;38.60;22.63;;;;;;;;;;4903453;29;20345;-87
2024/02/05 10:50:27;;;;;;;32.53;20.65;;;;;;;;;;4885437;29;20415;-87
2024/02/05 10:52:54;;;;;;;41.28;23.02;;;;;;;;;;4878353;29;20393;-87
2024/02/05 10:55:20;;;;;;;44.78;23.50;;;;;;;;;;4873305;29;20035;-87
2024/02/05 10:57:47;;;;;;;50.25;26.40;;;;;;;;;;4886382;29;20041;-87
2024/02/05 11:00:14;;;;;;;44.72;23.95;;;;;;;;;;4886281;29;20033;-87
2024/02/05 11:02:42;;;;;;;41.08;22.45;;;;;;;;;;4885641;29;20424;-87
2024/02/05 11:05:09;;;;;;;48.85;26.05;;;;;;;;;;4884534;29;20029;-87
2024/02/05 11:07:47;;;;;;;44.53;23.20;;;;;;;;;;4894765;29;20044;-88
2024/02/05 11:10:16;;;;;;;42.45;22.50;;;;;;;;;;4895307;29;20029;-88
2024/02/05 11:12:43;;;;;;;32.00;19.70;;;;;;;;;;4901914;29;20040;-88
2024/02/05 11:15:11;;;;;;;36.08;20.15;;;;;;;;;;4884682;29;20127;-84
2024/02/05 11:17:37;;;;;;;40.63;21.35;;;;;;;;;;4885968;29;20028;-84
2024/02/05 11:20:05;;;;;;;33.08;20.27;;;;;;;;;;4884976;29;20068;-85
2024/02/05 11:22:32;;;;;;;34.72;19.83;;;;;;;;;;4885773;29;20335;-85
2024/02/05 11:24:58;;;;;;;35.03;20.15;;;;;;;;;;4881146;29;20053;-86
2024/02/05 11:27:24;;;;;;;34.22;19.08;;;;;;;;;;4902898;29;20032;-85
2024/02/05 11:29:51;;;;;;;34.72;21.00;;;;;;;;;;4907844;29;20122;-85
2024/02/05 11:32:17;;;;;;;34.70;21.45;;;;;;;;;;4902531;29;20028;-85
2024/02/05 11:34:44;;;;;;;47.58;25.92;;;;;;;;;;4914048;29;20115;-85
2024/02/05 11:37:21;;;;;;;35.88;19.15;;;;;;;;;;4888402;29;20033;-85
2024/02/05 11:39:47;;;;;;;32.35;19.35;;;;;;;;;;4883576;29;20043;-85
2024/02/05 11:42:17;;;;;;;40.03;19.95;;;;;;;;;;4881967;29;20076;-85
2024/02/05 11:44:43;;;;;;;50.42;22.33;;;;;;;;;;4880413;29;20036;-85
2024/02/05 11:47:11;;;;;;;43.88;23.38;;;;;;;;;;4905135;29;20029;-85
2024/02/05 11:49:58;;;;;;;39.65;20.95;;;;;;;;;;4910031;29;20028;-85
2024/02/05 11:52:24;;;;;;;30.73;18.77;;;;;;;;;;4902631;29;20076;-85
2024/02/05 11:54:53;;;;;;;34.05;18.48;;;;;;;;;;4884825;29;20069;-85
2024/02/05 11:57:19;;;;;;;30.27;18.13;;;;;;;;;;4902548;29;20032;-84
2024/02/05 11:59:47;;;;;;;28.90;17.27;;;;;;;;;;4897543;29;20035;-84
2024/02/05 12:02:14;;;;;;;32.47;19.40;;;;;;;;;;4898558;29;20025;-84
2024/02/05 12:08:05;;;;;;;36.72;18.17;;;;;;;;;;4887101;29;20032;-84
2024/02/05 12:10:31;;;;;;;32.92;19.83;;;;;;;;;;4898870;29;20036;-84
2024/02/05 12:12:57;;;;;;;41.80;21.13;;;;;;;;;;4876744;29;20037;-84
2024/02/05 12:15:27;;;;;;;31.13;17.70;;;;;;;;;;4884508;29;20044;-85
2024/02/05 12:18:03;;;;;;;30.45;17.92;;;;;;;;;;4898349;29;20441;-85
2024/02/05 12:20:32;;;;;;;29.25;17.90;;;;;;;;;;4887293;29;20039;-85
2024/02/05 12:23:00;;;;;;;29.50;17.63;;;;;;;;;;4895805;29;20472;-84
2024/02/05 12:25:26;;;;;;;32.00;17.70;;;;;;;;;;4901250;29;20316;-85
2024/02/05 12:27:52;;;;;;;40.50;21.23;;;;;;;;;;4884781;29;20028;-84
2024/02/05 12:30:18;;;;;;;30.23;18.05;;;;;;;;;;4877180;29;20076;-85
2024/02/05 12:32:45;;;;;;;35.63;18.10;;;;;;;;;;4871328;29;20090;-85
2024/02/05 12:35:14;;;;;;;34.85;17.77;;;;;;;;;;4904773;29;20037;-85
2024/02/05 12:37:40;;;;;;;30.25;15.98;;;;;;;;;;4893364;29;20129;-87
2024/02/05 12:40:07;;;;;;;27.73;16.67;;;;;;;;;;4903563;29;20040;-85
2024/02/05 12:42:33;;;;;;;35.25;17.77;;;;;;;;;;4903741;29;20072;-85
2024/02/05 12:44:59;;;;;;;42.92;23.05;;;;;;;;;;4898595;29;20052;-85
2024/02/05 12:47:25;;;;;;;32.70;17.17;;;;;;;;;;4905025;29;20024;-85
2024/02/05 12:49:52;;;;;;;32.80;18.17;;;;;;;;;;4888141;29;20417;-85
2024/02/05 12:52:18;;;;;;;31.90;20.23;;;;;;;;;;4904251;29;20149;-85
2024/02/05 12:54:47;;;;;;;36.33;20.42;;;;;;;;;;4904573;29;20115;-85
2024/02/05 12:57:13;;;;;;;39.70;21.77;;;;;;;;;;4904383;29;20081;-84
2024/02/05 12:59:40;;;;;;;48.53;24.77;;;;;;;;;;4890536;29;20029;-84
2024/02/05 13:02:07;;;;;;;47.92;26.63;;;;;;;;;;4904537;29;20033;-83
2024/02/05 13:04:34;;;;;;;38.75;22.65;;;;;;;;;;4904778;29;20119;-84
2024/02/05 13:07:10;;;;;;;37.85;20.50;;;;;;;;;;4892617;29;20049;-84
2024/02/05 13:09:36;;;;;;;29.85;17.27;;;;;;;;;;4903507;29;20016;-84
2024/02/05 13:12:05;;;;;;;28.15;16.58;;;;;;;;;;4887058;29;20040;-84
2024/02/05 13:14:31;;;;;;;31.73;18.63;;;;;;;;;;4887441;29;20037;-84
2024/02/05 13:17:03;;;;;;;33.60;20.75;;;;;;;;;;4887166;29;20040;-83
2024/02/05 13:19:48;;;;;;;;;;;;;;;;;;4900053;29;20064;-83
2024/02/05 13:22:14;;;;;;;47.90;31.05;;;;;;;;;;4899214;29;19911;-82
2024/02/05 13:24:40;;;;;;;34.40;22.23;;;;;;;;;;4896012;29;20032;-83
2024/02/05 13:27:06;;;;;;;38.53;18.88;;;;;;;;;;4886402;29;20450;-82
2024/02/05 13:29:32;;;;;;;29.77;17.52;;;;;;;;;;4903898;29;20020;-82
2024/02/05 13:31:58;;;;;;;47.58;25.65;;;;;;;;;;4885024;29;20024;-83
2024/02/05 13:34:26;;;;;;;52.85;29.15;;;;;;;;;;4877163;29;20040;-83
2024/02/05 13:36:53;;;;;;;32.90;19.33;;;;;;;;;;4887286;29;20028;-84
2024/02/05 13:39:20;;;;;;;49.40;30.05;;;;;;;;;;4887407;29;20037;-85
2024/02/05 13:41:51;;;;;;;45.97;30.58;;;;;;;;;;4886676;29;20048;-84
2024/02/05 13:44:19;;;;;;;27.73;18.67;;;;;;;;;;4867004;29;20617;-85
2024/02/05 13:46:45;;;;;;;22.77;15.38;;;;;;;;;;4866099;29;20066;-85
2024/02/05 13:49:21;;;;;;;23.08;15.40;;;;;;;;;;4861081;29;20086;-84
2024/02/05 13:51:49;;;;;;;16.52;12.38;;;;;;;;;;4847459;29;20034;-86
2024/02/05 13:54:16;;;;;;;21.17;16.20;;;;;;;;;;4848192;29;20441;-87
2024/02/05 13:56:42;;;;;;;131.02;94.95;;;;;;;;;;4853474;29;20034;-84
2024/02/05 13:59:08;;;;;;;24.52;14.43;;;;;;;;;;4864508;29;20034;-87
2024/02/05 14:01:34;;;;;;;38.95;25.00;;;;;;;;;;4865443;29;20132;-85
2024/02/05 14:04:00;;;;;;;19.08;11.60;;;;;;;;;;4864944;29;20045;-85
2024/02/05 14:09:30;;;;;;;21.35;12.43;;;;;;;;;;4860237;29;20444;-86
2024/02/05 14:11:56;;;;;;;14.93;9.85;;;;;;;;;;4866345;29;20036;-86
2024/02/05 14:14:25;;;;;;;23.98;13.30;;;;;;;;;;4861185;29;20078;-86
2024/02/05 14:16:52;;;;;;;19.95;13.30;;;;;;;;;;4862145;29;20524;-86
2024/02/05 14:19:18;;;;;;;79.25;40.20;;;;;;;;;;4865363;29;20037;-85
2024/02/05 14:21:44;;;;;;;37.17;19.73;;;;;;;;;;4865193;29;20037;-85
2024/02/05 14:24:10;;;;;;;431.63;207.77;;;;;;;;;;4866354;29;20037;-85
2024/02/05 14:26:36;;;;;;;84.53;42.75;;;;;;;;;;4865896;29;20078;-85
2024/02/05 14:29:02;;;;;;;26.27;15.60;;;;;;;;;;4860135;29;20067;-85
2024/02/05 14:31:28;;;;;;;91.05;46.50;;;;;;;;;;4865862;29;20056;-87
2024/02/05 14:33:56;;;;;;;29.48;16.38;;;;;;;;;;4863462;29;20037;-88
2024/02/05 14:36:22;;;;;;;261.92;140.43;;;;;;;;;;4865459;29;20124;-87
2024/02/05 14:38:48;;;;;;;77.53;42.60;;;;;;;;;;4865854;29;20053;-87
2024/02/05 14:41:14;;;;;;;123.97;66.25;;;;;;;;;;4864320;29;20042;-85
2024/02/05 14:43:40;;;;;;;51.20;23.77;;;;;;;;;;4864367;29;20057;-86
2024/02/05 14:46:06;;;;;;;63.22;28.40;;;;;;;;;;4864337;29;20120;-86
2024/02/05 14:48:32;;;;;;;46.33;24.48;;;;;;;;;;4861994;29;20116;-86
